sensor_id;sensor_type;location;lat;lon;timestamp;temperature;humidity
34776;DHT22;20989;52.566;13.346;2023-05-27T00:01:35;23.70;43.80
34776;DHT22;20989;52.566;13.346;2023-05-27T00:04:35;23.70;43.80
34776;DHT22;20989;52.566;13.346;2023-05-27T00:07:36;23.70;43.70
34776;DHT22;20989;52.566;13.346;2023-05-27T00:10:37;23.70;43.80
34776;DHT22;20989;52.566;13.346;2023-05-27T00:13:37;23.70;43.60
34776;DHT22;20989;52.566;13.346;2023-05-27T00:16:38;23.70;43.80
34776;DHT22;20989;52.566;13.346;2023-05-27T00:19:42;23.70;43.60
34776;DHT22;20989;52.566;13.346;2023-05-27T00:22:45;23.70;43.70
34776;DHT22;20989;52.566;13.346;2023-05-27T00:25:47;23.70;43.60
34776;DHT22;20989;52.566;13.346;2023-05-27T00:28:48;23.70;43.80
34776;DHT22;20989;52.566;13.346;2023-05-27T00:31:49;23.70;43.70
34776;DHT22;20989;52.566;13.346;2023-05-27T00:34:49;23.70;43.70
34776;DHT22;20989;52.566;13.346;2023-05-27T00:37:50;23.70;43.80
34776;DHT22;20989;52.566;13.346;2023-05-27T00:40:53;23.60;43.70
34776;DHT22;20989;52.566;13.346;2023-05-27T00:43:55;23.70;43.80
34776;DHT22;20989;52.566;13.346;2023-05-27T00:46:56;23.70;43.70
34776;DHT22;20989;52.566;13.346;2023-05-27T00:49:57;23.70;43.90
34776;DHT22;20989;52.566;13.346;2023-05-27T00:52:58;23.60;43.90
34776;DHT22;20989;52.566;13.346;2023-05-27T00:56:01;23.60;43.80
34776;DHT22;20989;52.566;13.346;2023-05-27T00:59:03;23.60;43.50
34776;DHT22;20989;52.566;13.346;2023-05-27T01:02:04;23.60;43.60
34776;DHT22;20989;52.566;13.346;2023-05-27T01:05:05;23.60;43.80
34776;DHT22;20989;52.566;13.346;2023-05-27T01:11:12;23.60;43.90
34776;DHT22;20989;52.566;13.346;2023-05-27T01:14:14;23.60;43.80
34776;DHT22;20989;52.566;13.346;2023-05-27T01:17:17;23.60;43.90
34776;DHT22;20989;52.566;13.346;2023-05-27T01:20:18;23.60;44.30
34776;DHT22;20989;52.566;13.346;2023-05-27T01:23:20;23.60;43.90
34776;DHT22;20989;52.566;13.346;2023-05-27T01:26:20;23.60;43.90
34776;DHT22;20989;52.566;13.346;2023-05-27T01:29:21;23.60;43.80
34776;DHT22;20989;52.566;13.346;2023-05-27T01:32:51;23.60;44.00
34776;DHT22;20989;52.566;13.346;2023-05-27T01:35:58;23.60;43.90
34776;DHT22;20989;52.566;13.346;2023-05-27T01:39:00;23.60;43.80
34776;DHT22;20989;52.566;13.346;2023-05-27T01:42:01;23.50;43.80
34776;DHT22;20989;52.566;13.346;2023-05-27T01:45:05;23.60;44.00
34776;DHT22;20989;52.566;13.346;2023-05-27T01:48:06;23.60;43.90
34776;DHT22;20989;52.566;13.346;2023-05-27T01:51:07;23.60;44.00
34776;DHT22;20989;52.566;13.346;2023-05-27T01:54:08;23.60;43.80
34776;DHT22;20989;52.566;13.346;2023-05-27T01:57:09;23.60;44.00
34776;DHT22;20989;52.566;13.346;2023-05-27T02:00:10;23.60;43.90
34776;DHT22;20989;52.566;13.346;2023-05-27T02:03:11;23.50;43.90
34776;DHT22;20989;52.566;13.346;2023-05-27T02:06:12;23.60;44.00
34776;DHT22;20989;52.566;13.346;2023-05-27T02:09:12;23.50;43.90
34776;DHT22;20989;52.566;13.346;2023-05-27T02:12:13;23.60;44.00
34776;DHT22;20989;52.566;13.346;2023-05-27T02:15:14;23.60;44.00
34776;DHT22;20989;52.566;13.346;2023-05-27T02:18:15;23.50;44.00
34776;DHT22;20989;52.566;13.346;2023-05-27T02:21:16;23.50;43.90
34776;DHT22;20989;52.566;13.346;2023-05-27T02:24:16;23.50;44.00
34776;DHT22;20989;52.566;13.346;2023-05-27T02:27:17;23.50;44.00
34776;DHT22;20989;52.566;13.346;2023-05-27T02:30:18;23.50;43.90
34776;DHT22;20989;52.566;13.346;2023-05-27T02:33:18;23.50;44.00
34776;DHT22;20989;52.566;13.346;2023-05-27T02:36:19;23.50;43.90
34776;DHT22;20989;52.566;13.346;2023-05-27T02:39:21;23.50;44.00
34776;DHT22;20989;52.566;13.346;2023-05-27T02:42:22;23.50;43.90
34776;DHT22;20989;52.566;13.346;2023-05-27T02:45:22;23.50;43.90
34776;DHT22;20989;52.566;13.346;2023-05-27T02:48:24;23.50;43.90
34776;DHT22;20989;52.566;13.346;2023-05-27T02:51:24;23.50;44.00
34776;DHT22;20989;52.566;13.346;2023-05-27T02:54:25;23.50;44.00
34776;DHT22;20989;52.566;13.346;2023-05-27T02:57:26;23.50;44.00
34776;DHT22;20989;52.566;13.346;2023-05-27T03:00:26;23.50;44.10
34776;DHT22;20989;52.566;13.346;2023-05-27T03:03:27;23.50;44.00
34776;DHT22;20989;52.566;13.346;2023-05-27T03:06:28;23.50;44.00
34776;DHT22;20989;52.566;13.346;2023-05-27T03:09:28;23.50;44.10
34776;DHT22;20989;52.566;13.346;2023-05-27T03:12:29;23.50;44.00
34776;DHT22;20989;52.566;13.346;2023-05-27T03:15:30;23.40;43.90
34776;DHT22;20989;52.566;13.346;2023-05-27T03:18:31;23.50;44.20
34776;DHT22;20989;52.566;13.346;2023-05-27T03:21:33;23.40;43.90
34776;DHT22;20989;52.566;13.346;2023-05-27T03:24:33;23.50;44.00
34776;DHT22;20989;52.566;13.346;2023-05-27T03:27:35;23.50;44.10
34776;DHT22;20989;52.566;13.346;2023-05-27T03:30:36;23.50;44.00
34776;DHT22;20989;52.566;13.346;2023-05-27T03:33:38;23.50;44.20
34776;DHT22;20989;52.566;13.346;2023-05-27T03:36:39;23.40;44.20
34776;DHT22;20989;52.566;13.346;2023-05-27T03:39:40;23.40;44.10
34776;DHT22;20989;52.566;13.346;2023-05-27T03:42:41;23.40;44.10
34776;DHT22;20989;52.566;13.346;2023-05-27T03:45:41;23.40;44.00
34776;DHT22;20989;52.566;13.346;2023-05-27T03:48:42;23.40;44.20
34776;DHT22;20989;52.566;13.346;2023-05-27T03:51:43;23.40;44.30
34776;DHT22;20989;52.566;13.346;2023-05-27T03:54:44;23.40;44.30
34776;DHT22;20989;52.566;13.346;2023-05-27T03:57:44;23.40;44.30
34776;DHT22;20989;52.566;13.346;2023-05-27T04:00:45;23.40;44.10
34776;DHT22;20989;52.566;13.346;2023-05-27T04:03:49;23.40;44.30
34776;DHT22;20989;52.566;13.346;2023-05-27T04:06:49;23.40;44.10
34776;DHT22;20989;52.566;13.346;2023-05-27T04:09:50;23.40;44.30
34776;DHT22;20989;52.566;13.346;2023-05-27T04:12:51;23.40;44.20
34776;DHT22;20989;52.566;13.346;2023-05-27T04:15:51;23.40;44.10
34776;DHT22;20989;52.566;13.346;2023-05-27T04:18:52;23.40;44.10
34776;DHT22;20989;52.566;13.346;2023-05-27T04:21:53;23.40;44.20
34776;DHT22;20989;52.566;13.346;2023-05-27T04:24:54;23.40;44.20
34776;DHT22;20989;52.566;13.346;2023-05-27T04:27:55;23.40;44.10
34776;DHT22;20989;52.566;13.346;2023-05-27T04:30:55;23.40;44.20
34776;DHT22;20989;52.566;13.346;2023-05-27T04:33:58;23.40;44.10
34776;DHT22;20989;52.566;13.346;2023-05-27T04:36:59;23.40;44.10
34776;DHT22;20989;52.566;13.346;2023-05-27T04:40:04;23.40;44.10
34776;DHT22;20989;52.566;13.346;2023-05-27T04:43:06;23.40;44.10
34776;DHT22;20989;52.566;13.346;2023-05-27T04:46:07;23.40;44.00
34776;DHT22;20989;52.566;13.346;2023-05-27T04:49:08;23.40;44.10
34776;DHT22;20989;52.566;13.346;2023-05-27T04:52:09;23.40;44.30
34776;DHT22;20989;52.566;13.346;2023-05-27T04:55:10;23.40;44.20
34776;DHT22;20989;52.566;13.346;2023-05-27T04:58:11;23.40;44.30
34776;DHT22;20989;52.566;13.346;2023-05-27T05:01:13;23.40;44.30
34776;DHT22;20989;52.566;13.346;2023-05-27T05:04:21;23.40;44.30
34776;DHT22;20989;52.566;13.346;2023-05-27T05:07:22;23.40;44.20
34776;DHT22;20989;52.566;13.346;2023-05-27T05:10:23;23.30;44.10
34776;DHT22;20989;52.566;13.346;2023-05-27T05:13:23;23.30;44.10
34776;DHT22;20989;52.566;13.346;2023-05-27T05:16:29;23.30;44.10
34776;DHT22;20989;52.566;13.346;2023-05-27T05:19:30;23.30;44.20
34776;DHT22;20989;52.566;13.346;2023-05-27T05:22:30;23.30;44.10
34776;DHT22;20989;52.566;13.346;2023-05-27T05:25:31;23.40;44.30
34776;DHT22;20989;52.566;13.346;2023-05-27T05:28:35;23.30;44.20
34776;DHT22;20989;52.566;13.346;2023-05-27T05:31:36;23.30;44.20
34776;DHT22;20989;52.566;13.346;2023-05-27T05:34:37;23.30;44.30
34776;DHT22;20989;52.566;13.346;2023-05-27T05:37:38;23.30;44.20
34776;DHT22;20989;52.566;13.346;2023-05-27T05:40:39;23.30;44.20
34776;DHT22;20989;52.566;13.346;2023-05-27T05:43:39;23.30;44.30
34776;DHT22;20989;52.566;13.346;2023-05-27T05:46:40;23.30;44.20
34776;DHT22;20989;52.566;13.346;2023-05-27T05:49:41;23.30;44.20
34776;DHT22;20989;52.566;13.346;2023-05-27T05:52:42;23.30;44.20
34776;DHT22;20989;52.566;13.346;2023-05-27T05:55:42;23.30;44.10
34776;DHT22;20989;52.566;13.346;2023-05-27T05:58:43;23.30;44.10
34776;DHT22;20989;52.566;13.346;2023-05-27T06:01:43;23.40;44.10
34776;DHT22;20989;52.566;13.346;2023-05-27T06:04:44;23.30;44.20
34776;DHT22;20989;52.566;13.346;2023-05-27T06:07:45;23.30;44.10
34776;DHT22;20989;52.566;13.346;2023-05-27T06:10:45;23.30;44.20
34776;DHT22;20989;52.566;13.346;2023-05-27T06:13:46;23.30;44.10
34776;DHT22;20989;52.566;13.346;2023-05-27T06:16:47;23.30;44.20
34776;DHT22;20989;52.566;13.346;2023-05-27T06:19:48;23.30;44.60
34776;DHT22;20989;52.566;13.346;2023-05-27T06:22:48;23.30;44.10
34776;DHT22;20989;52.566;13.346;2023-05-27T06:25:49;23.30;44.10
34776;DHT22;20989;52.566;13.346;2023-05-27T06:28:50;23.30;44.10
34776;DHT22;20989;52.566;13.346;2023-05-27T06:31:50;23.30;44.20
34776;DHT22;20989;52.566;13.346;2023-05-27T06:34:51;23.30;44.20
34776;DHT22;20989;52.566;13.346;2023-05-27T06:37:52;23.30;44.10
34776;DHT22;20989;52.566;13.346;2023-05-27T06:40:53;23.30;44.10
34776;DHT22;20989;52.566;13.346;2023-05-27T06:43:54;23.30;44.10
34776;DHT22;20989;52.566;13.346;2023-05-27T06:46:54;23.20;43.90
34776;DHT22;20989;52.566;13.346;2023-05-27T06:49:55;23.20;43.90
34776;DHT22;20989;52.566;13.346;2023-05-27T06:52:56;23.20;43.90
34776;DHT22;20989;52.566;13.346;2023-05-27T06:55:57;23.20;43.90
34776;DHT22;20989;52.566;13.346;2023-05-27T06:58:57;23.30;44.00
34776;DHT22;20989;52.566;13.346;2023-05-27T07:01:58;23.30;43.90
34776;DHT22;20989;52.566;13.346;2023-05-27T07:04:59;23.30;43.90
34776;DHT22;20989;52.566;13.346;2023-05-27T07:08:00;23.30;44.00
34776;DHT22;20989;52.566;13.346;2023-05-27T07:11:00;23.30;44.00
34776;DHT22;20989;52.566;13.346;2023-05-27T07:14:01;23.30;43.90
34776;DHT22;20989;52.566;13.346;2023-05-27T07:17:02;23.20;43.80
34776;DHT22;20989;52.566;13.346;2023-05-27T07:20:03;23.20;43.90
34776;DHT22;20989;52.566;13.346;2023-05-27T07:23:03;23.30;43.90
34776;DHT22;20989;52.566;13.346;2023-05-27T07:26:04;23.20;44.00
34776;DHT22;20989;52.566;13.346;2023-05-27T07:29:05;23.30;43.80
34776;DHT22;20989;52.566;13.346;2023-05-27T07:32:06;23.20;43.70
34776;DHT22;20989;52.566;13.346;2023-05-27T07:35:06;23.20;43.70
34776;DHT22;20989;52.566;13.346;2023-05-27T07:38:07;23.20;43.70
34776;DHT22;20989;52.566;13.346;2023-05-27T07:41:08;23.30;43.70
34776;DHT22;20989;52.566;13.346;2023-05-27T07:44:08;23.30;43.80
34776;DHT22;20989;52.566;13.346;2023-05-27T07:47:09;23.20;43.70
34776;DHT22;20989;52.566;13.346;2023-05-27T07:50:10;23.20;43.60
34776;DHT22;20989;52.566;13.346;2023-05-27T07:53:10;23.20;43.60
34776;DHT22;20989;52.566;13.346;2023-05-27T07:56:11;23.20;43.60
34776;DHT22;20989;52.566;13.346;2023-05-27T07:59:12;23.20;43.40
34776;DHT22;20989;52.566;13.346;2023-05-27T08:02:12;23.30;43.50
34776;DHT22;20989;52.566;13.346;2023-05-27T08:05:13;23.20;43.60
34776;DHT22;20989;52.566;13.346;2023-05-27T08:08:13;23.20;43.50
34776;DHT22;20989;52.566;13.346;2023-05-27T08:11:14;23.20;43.50
34776;DHT22;20989;52.566;13.346;2023-05-27T08:14:15;23.20;43.50
34776;DHT22;20989;52.566;13.346;2023-05-27T08:17:16;23.20;43.50
34776;DHT22;20989;52.566;13.346;2023-05-27T08:20:17;23.20;43.50
34776;DHT22;20989;52.566;13.346;2023-05-27T08:23:18;23.20;43.50
34776;DHT22;20989;52.566;13.346;2023-05-27T08:26:18;23.20;43.50
34776;DHT22;20989;52.566;13.346;2023-05-27T08:29:19;23.20;43.40
34776;DHT22;20989;52.566;13.346;2023-05-27T08:32:20;23.20;43.40
34776;DHT22;20989;52.566;13.346;2023-05-27T08:35:20;23.20;43.30
34776;DHT22;20989;52.566;13.346;2023-05-27T08:38:21;23.20;43.30
34776;DHT22;20989;52.566;13.346;2023-05-27T08:41:22;23.20;43.50
34776;DHT22;20989;52.566;13.346;2023-05-27T08:44:23;23.20;43.40
34776;DHT22;20989;52.566;13.346;2023-05-27T08:47:25;23.20;43.50
34776;DHT22;20989;52.566;13.346;2023-05-27T08:50:26;23.20;43.50
34776;DHT22;20989;52.566;13.346;2023-05-27T08:53:28;23.30;43.60
34776;DHT22;20989;52.566;13.346;2023-05-27T08:56:29;23.20;43.50
34776;DHT22;20989;52.566;13.346;2023-05-27T08:59:32;23.20;43.30
34776;DHT22;20989;52.566;13.346;2023-05-27T09:02:32;23.20;43.40
34776;DHT22;20989;52.566;13.346;2023-05-27T09:05:33;23.20;43.30
34776;DHT22;20989;52.566;13.346;2023-05-27T09:08:34;23.30;43.50
34776;DHT22;20989;52.566;13.346;2023-05-27T09:11:39;23.20;43.50
34776;DHT22;20989;52.566;13.346;2023-05-27T09:14:40;23.20;43.50
34776;DHT22;20989;52.566;13.346;2023-05-27T09:17:44;23.30;43.50
34776;DHT22;20989;52.566;13.346;2023-05-27T09:20:44;23.20;43.50
34776;DHT22;20989;52.566;13.346;2023-05-27T09:23:47;23.20;43.40
34776;DHT22;20989;52.566;13.346;2023-05-27T09:26:50;23.20;43.40
34776;DHT22;20989;52.566;13.346;2023-05-27T09:29:51;23.20;43.50
34776;DHT22;20989;52.566;13.346;2023-05-27T09:33:00;23.30;43.40
34776;DHT22;20989;52.566;13.346;2023-05-27T09:36:03;23.20;43.30
34776;DHT22;20989;52.566;13.346;2023-05-27T09:39:04;23.20;43.50
34776;DHT22;20989;52.566;13.346;2023-05-27T09:42:05;23.20;43.50
34776;DHT22;20989;52.566;13.346;2023-05-27T09:45:06;23.20;43.30
34776;DHT22;20989;52.566;13.346;2023-05-27T09:48:11;23.20;43.10
34776;DHT22;20989;52.566;13.346;2023-05-27T09:51:12;23.20;43.10
34776;DHT22;20989;52.566;13.346;2023-05-27T09:54:18;23.20;43.20
34776;DHT22;20989;52.566;13.346;2023-05-27T09:57:22;23.20;43.30
34776;DHT22;20989;52.566;13.346;2023-05-27T10:00:23;23.20;43.30
34776;DHT22;20989;52.566;13.346;2023-05-27T10:03:24;23.20;43.20
34776;DHT22;20989;52.566;13.346;2023-05-27T10:06:25;23.20;43.20
34776;DHT22;20989;52.566;13.346;2023-05-27T10:09:26;23.20;43.40
34776;DHT22;20989;52.566;13.346;2023-05-27T10:12:28;23.20;43.30
34776;DHT22;20989;52.566;13.346;2023-05-27T10:15:31;23.20;43.20
34776;DHT22;20989;52.566;13.346;2023-05-27T10:18:32;23.20;43.20
34776;DHT22;20989;52.566;13.346;2023-05-27T10:21:42;23.20;42.80
34776;DHT22;20989;52.566;13.346;2023-05-27T10:24:46;23.20;43.10
34776;DHT22;20989;52.566;13.346;2023-05-27T10:27:48;23.20;43.00
34776;DHT22;20989;52.566;13.346;2023-05-27T10:30:49;23.30;42.40
34776;DHT22;20989;52.566;13.346;2023-05-27T10:33:50;23.40;42.50
34776;DHT22;20989;52.566;13.346;2023-05-27T10:37:00;23.50;42.50
34776;DHT22;20989;52.566;13.346;2023-05-27T10:40:04;23.40;42.80
34776;DHT22;20989;52.566;13.346;2023-05-27T10:43:17;23.40;41.40
34776;DHT22;20989;52.566;13.346;2023-05-27T10:46:18;23.40;41.70
34776;DHT22;20989;52.566;13.346;2023-05-27T10:49:25;23.50;41.70
34776;DHT22;20989;52.566;13.346;2023-05-27T10:52:28;23.60;42.10
34776;DHT22;20989;52.566;13.346;2023-05-27T10:55:34;23.60;42.00
34776;DHT22;20989;52.566;13.346;2023-05-27T10:58:37;23.60;41.90
34776;DHT22;20989;52.566;13.346;2023-05-27T11:01:38;23.70;42.20
34776;DHT22;20989;52.566;13.346;2023-05-27T11:04:39;23.70;42.00
34776;DHT22;20989;52.566;13.346;2023-05-27T11:07:41;23.70;42.10
34776;DHT22;20989;52.566;13.346;2023-05-27T11:10:42;23.70;42.40
34776;DHT22;20989;52.566;13.346;2023-05-27T11:13:44;23.80;42.40
34776;DHT22;20989;52.566;13.346;2023-05-27T11:16:49;23.80;42.20
34776;DHT22;20989;52.566;13.346;2023-05-27T11:19:52;23.70;42.10
34776;DHT22;20989;52.566;13.346;2023-05-27T11:22:53;23.80;42.30
34776;DHT22;20989;52.566;13.346;2023-05-27T11:25:54;23.70;42.10
34776;DHT22;20989;52.566;13.346;2023-05-27T11:28:58;23.80;42.40
34776;DHT22;20989;52.566;13.346;2023-05-27T11:31:59;23.80;42.50
34776;DHT22;20989;52.566;13.346;2023-05-27T11:34:59;23.80;42.40
34776;DHT22;20989;52.566;13.346;2023-05-27T11:38:00;23.80;42.60
34776;DHT22;20989;52.566;13.346;2023-05-27T11:41:08;23.80;42.60
34776;DHT22;20989;52.566;13.346;2023-05-27T11:44:09;23.90;42.50
34776;DHT22;20989;52.566;13.346;2023-05-27T11:47:10;24.00;42.60
34776;DHT22;20989;52.566;13.346;2023-05-27T11:50:10;24.00;42.40
34776;DHT22;20989;52.566;13.346;2023-05-27T11:53:11;24.00;42.70
34776;DHT22;20989;52.566;13.346;2023-05-27T11:56:16;24.00;42.70
34776;DHT22;20989;52.566;13.346;2023-05-27T11:59:17;24.00;42.80
34776;DHT22;20989;52.566;13.346;2023-05-27T12:02:18;24.00;42.60
34776;DHT22;20989;52.566;13.346;2023-05-27T12:05:21;24.00;42.70
34776;DHT22;20989;52.566;13.346;2023-05-27T12:08:22;24.00;42.90
34776;DHT22;20989;52.566;13.346;2023-05-27T12:11:22;24.00;42.80
34776;DHT22;20989;52.566;13.346;2023-05-27T12:14:23;24.00;42.90
34776;DHT22;20989;52.566;13.346;2023-05-27T12:17:24;24.00;42.90
34776;DHT22;20989;52.566;13.346;2023-05-27T12:20:25;24.00;42.70
34776;DHT22;20989;52.566;13.346;2023-05-27T12:23:28;24.00;42.50
34776;DHT22;20989;52.566;13.346;2023-05-27T12:26:28;24.00;42.50
34776;DHT22;20989;52.566;13.346;2023-05-27T12:29:29;24.00;42.70
34776;DHT22;20989;52.566;13.346;2023-05-27T12:32:30;24.00;42.90
34776;DHT22;20989;52.566;13.346;2023-05-27T12:35:31;24.00;42.80
34776;DHT22;20989;52.566;13.346;2023-05-27T12:38:32;24.00;42.90
34776;DHT22;20989;52.566;13.346;2023-05-27T12:41:33;24.00;42.60
34776;DHT22;20989;52.566;13.346;2023-05-27T12:44:33;24.00;42.70
34776;DHT22;20989;52.566;13.346;2023-05-27T12:47:34;24.00;42.90
34776;DHT22;20989;52.566;13.346;2023-05-27T12:50:35;24.10;43.00
34776;DHT22;20989;52.566;13.346;2023-05-27T12:53:35;24.20;42.90
34776;DHT22;20989;52.566;13.346;2023-05-27T12:56:36;24.10;42.90
34776;DHT22;20989;52.566;13.346;2023-05-27T12:59:37;24.10;42.30
34776;DHT22;20989;52.566;13.346;2023-05-27T13:02:38;24.00;43.00
34776;DHT22;20989;52.566;13.346;2023-05-27T13:05:39;24.00;42.90
34776;DHT22;20989;52.566;13.346;2023-05-27T13:08:40;24.00;42.90
34776;DHT22;20989;52.566;13.346;2023-05-27T13:11:40;24.00;42.70
34776;DHT22;20989;52.566;13.346;2023-05-27T13:14:41;24.00;42.60
34776;DHT22;20989;52.566;13.346;2023-05-27T13:17:46;24.10;43.30
34776;DHT22;20989;52.566;13.346;2023-05-27T13:20:47;24.00;42.90
34776;DHT22;20989;52.566;13.346;2023-05-27T13:23:48;24.00;42.90
34776;DHT22;20989;52.566;13.346;2023-05-27T13:26:50;24.00;42.50
34776;DHT22;20989;52.566;13.346;2023-05-27T13:29:50;24.10;43.20
34776;DHT22;20989;52.566;13.346;2023-05-27T13:32:51;24.10;42.80
34776;DHT22;20989;52.566;13.346;2023-05-27T13:35:52;24.10;43.20
34776;DHT22;20989;52.566;13.346;2023-05-27T13:38:53;24.10;42.70
34776;DHT22;20989;52.566;13.346;2023-05-27T13:41:54;24.10;43.20
34776;DHT22;20989;52.566;13.346;2023-05-27T13:44:54;24.20;43.10
34776;DHT22;20989;52.566;13.346;2023-05-27T13:47:55;24.20;43.80
34776;DHT22;20989;52.566;13.346;2023-05-27T13:50:57;24.20;43.10
34776;DHT22;20989;52.566;13.346;2023-05-27T13:53:58;24.20;43.20
34776;DHT22;20989;52.566;13.346;2023-05-27T13:56:58;24.20;42.90
34776;DHT22;20989;52.566;13.346;2023-05-27T13:59:59;24.30;42.80
34776;DHT22;20989;52.566;13.346;2023-05-27T14:03:00;24.40;42.90
34776;DHT22;20989;52.566;13.346;2023-05-27T14:06:01;24.40;42.80
34776;DHT22;20989;52.566;13.346;2023-05-27T14:09:02;24.40;42.60
34776;DHT22;20989;52.566;13.346;2023-05-27T14:12:03;24.30;42.90
34776;DHT22;20989;52.566;13.346;2023-05-27T14:15:05;24.40;43.10
34776;DHT22;20989;52.566;13.346;2023-05-27T14:18:06;24.30;43.10
34776;DHT22;20989;52.566;13.346;2023-05-27T14:21:06;24.30;42.80
34776;DHT22;20989;52.566;13.346;2023-05-27T14:24:08;24.30;43.00
34776;DHT22;20989;52.566;13.346;2023-05-27T14:27:08;24.30;43.20
34776;DHT22;20989;52.566;13.346;2023-05-27T14:30:09;24.40;43.20
34776;DHT22;20989;52.566;13.346;2023-05-27T14:33:11;24.40;42.80
34776;DHT22;20989;52.566;13.346;2023-05-27T14:36:12;24.30;43.10
34776;DHT22;20989;52.566;13.346;2023-05-27T14:39:13;24.40;43.20
34776;DHT22;20989;52.566;13.346;2023-05-27T14:42:13;24.40;43.30
34776;DHT22;20989;52.566;13.346;2023-05-27T14:45:14;24.30;42.60
34776;DHT22;20989;52.566;13.346;2023-05-27T14:48:15;24.30;43.00
34776;DHT22;20989;52.566;13.346;2023-05-27T14:51:15;24.40;43.10
34776;DHT22;20989;52.566;13.346;2023-05-27T14:54:16;24.40;43.20
34776;DHT22;20989;52.566;13.346;2023-05-27T14:57:17;24.40;43.30
34776;DHT22;20989;52.566;13.346;2023-05-27T15:00:18;24.40;42.60
34776;DHT22;20989;52.566;13.346;2023-05-27T15:03:18;24.30;43.00
34776;DHT22;20989;52.566;13.346;2023-05-27T15:06:19;24.30;43.00
34776;DHT22;20989;52.566;13.346;2023-05-27T15:09:20;24.30;43.10
34776;DHT22;20989;52.566;13.346;2023-05-27T15:12:21;24.50;43.20
34776;DHT22;20989;52.566;13.346;2023-05-27T15:15:21;24.40;43.20
34776;DHT22;20989;52.566;13.346;2023-05-27T15:18:22;24.50;42.80
34776;DHT22;20989;52.566;13.346;2023-05-27T15:21:24;24.50;43.10
34776;DHT22;20989;52.566;13.346;2023-05-27T15:24:25;24.50;43.00
34776;DHT22;20989;52.566;13.346;2023-05-27T15:27:26;24.50;43.20
34776;DHT22;20989;52.566;13.346;2023-05-27T15:30:26;24.60;43.30
34776;DHT22;20989;52.566;13.346;2023-05-27T15:33:28;24.60;43.30
34776;DHT22;20989;52.566;13.346;2023-05-27T15:36:29;24.60;43.10
34776;DHT22;20989;52.566;13.346;2023-05-27T15:39:30;24.60;43.20
34776;DHT22;20989;52.566;13.346;2023-05-27T15:42:32;24.50;43.00
34776;DHT22;20989;52.566;13.346;2023-05-27T15:45:32;24.50;42.90
34776;DHT22;20989;52.566;13.346;2023-05-27T15:48:34;24.50;43.00
34776;DHT22;20989;52.566;13.346;2023-05-27T15:51:35;24.50;43.40
34776;DHT22;20989;52.566;13.346;2023-05-27T15:54:37;24.50;43.50
34776;DHT22;20989;52.566;13.346;2023-05-27T15:57:38;24.50;43.50
34776;DHT22;20989;52.566;13.346;2023-05-27T16:00:39;24.50;42.90
34776;DHT22;20989;52.566;13.346;2023-05-27T16:03:40;24.50;43.70
34776;DHT22;20989;52.566;13.346;2023-05-27T16:06:41;24.60;42.80
34776;DHT22;20989;52.566;13.346;2023-05-27T16:09:41;24.60;43.30
34776;DHT22;20989;52.566;13.346;2023-05-27T16:12:42;24.50;43.30
34776;DHT22;20989;52.566;13.346;2023-05-27T16:15:43;24.60;43.10
34776;DHT22;20989;52.566;13.346;2023-05-27T16:18:44;24.60;43.30
34776;DHT22;20989;52.566;13.346;2023-05-27T16:21:45;24.60;43.30
34776;DHT22;20989;52.566;13.346;2023-05-27T16:24:47;24.60;43.40
34776;DHT22;20989;52.566;13.346;2023-05-27T16:27:48;24.60;43.30
34776;DHT22;20989;52.566;13.346;2023-05-27T16:30:49;24.60;43.40
34776;DHT22;20989;52.566;13.346;2023-05-27T16:33:50;24.60;43.40
34776;DHT22;20989;52.566;13.346;2023-05-27T16:36:51;24.60;43.40
34776;DHT22;20989;52.566;13.346;2023-05-27T16:39:52;24.60;43.50
34776;DHT22;20989;52.566;13.346;2023-05-27T16:42:53;24.60;43.50
34776;DHT22;20989;52.566;13.346;2023-05-27T16:45:54;24.60;43.50
34776;DHT22;20989;52.566;13.346;2023-05-27T16:48:55;24.70;43.20
34776;DHT22;20989;52.566;13.346;2023-05-27T16:51:56;24.60;43.50
34776;DHT22;20989;52.566;13.346;2023-05-27T16:54:58;24.70;43.50
34776;DHT22;20989;52.566;13.346;2023-05-27T16:57:59;24.70;43.60
34776;DHT22;20989;52.566;13.346;2023-05-27T17:00:59;24.70;43.50
34776;DHT22;20989;52.566;13.346;2023-05-27T17:04:00;24.70;43.20
34776;DHT22;20989;52.566;13.346;2023-05-27T17:07:01;24.70;43.50
34776;DHT22;20989;52.566;13.346;2023-05-27T17:10:02;24.70;43.50
34776;DHT22;20989;52.566;13.346;2023-05-27T17:13:03;24.70;43.50
34776;DHT22;20989;52.566;13.346;2023-05-27T17:16:04;24.70;43.80
34776;DHT22;20989;52.566;13.346;2023-05-27T17:19:05;24.70;43.40
34776;DHT22;20989;52.566;13.346;2023-05-27T17:22:06;24.60;43.40
34776;DHT22;20989;52.566;13.346;2023-05-27T17:25:07;24.70;43.50
34776;DHT22;20989;52.566;13.346;2023-05-27T17:28:08;24.60;43.30
34776;DHT22;20989;52.566;13.346;2023-05-27T17:31:08;24.70;43.30
34776;DHT22;20989;52.566;13.346;2023-05-27T17:34:09;24.60;42.70
34776;DHT22;20989;52.566;13.346;2023-05-27T17:37:10;24.40;40.90
34776;DHT22;20989;52.566;13.346;2023-05-27T17:40:11;24.60;42.40
34776;DHT22;20989;52.566;13.346;2023-05-27T17:43:12;24.60;42.10
34776;DHT22;20989;52.566;13.346;2023-05-27T17:46:12;24.70;42.10
34776;DHT22;20989;52.566;13.346;2023-05-27T17:49:13;24.70;42.40
34776;DHT22;20989;52.566;13.346;2023-05-27T17:52:13;24.70;43.20
34776;DHT22;20989;52.566;13.346;2023-05-27T17:55:16;24.70;43.10
34776;DHT22;20989;52.566;13.346;2023-05-27T17:58:17;24.80;43.30
34776;DHT22;20989;52.566;13.346;2023-05-27T18:01:18;24.80;43.10
34776;DHT22;20989;52.566;13.346;2023-05-27T18:04:18;24.70;43.30
34776;DHT22;20989;52.566;13.346;2023-05-27T18:07:19;24.80;43.30
34776;DHT22;20989;52.566;13.346;2023-05-27T18:10:20;24.80;43.40
34776;DHT22;20989;52.566;13.346;2023-05-27T18:13:21;24.80;43.50
34776;DHT22;20989;52.566;13.346;2023-05-27T18:16:22;24.80;43.70
34776;DHT22;20989;52.566;13.346;2023-05-27T18:19:24;24.80;43.80
34776;DHT22;20989;52.566;13.346;2023-05-27T18:22:24;24.80;43.80
34776;DHT22;20989;52.566;13.346;2023-05-27T18:25:25;24.80;44.20
34776;DHT22;20989;52.566;13.346;2023-05-27T18:28:26;24.80;43.90
34776;DHT22;20989;52.566;13.346;2023-05-27T18:31:26;24.80;44.20
34776;DHT22;20989;52.566;13.346;2023-05-27T18:34:27;24.80;44.00
34776;DHT22;20989;52.566;13.346;2023-05-27T18:37:28;24.80;44.00
34776;DHT22;20989;52.566;13.346;2023-05-27T18:40:28;24.80;44.30
34776;DHT22;20989;52.566;13.346;2023-05-27T18:43:29;24.80;44.10
34776;DHT22;20989;52.566;13.346;2023-05-27T18:46:33;24.80;44.10
34776;DHT22;20989;52.566;13.346;2023-05-27T18:49:35;24.80;44.40